createdAt,value
2018-10-18T00:01:47.569Z,44.70
2018-10-18T00:04:15.835Z,42.83
2018-10-18T00:06:44.065Z,42.43
2018-10-18T00:09:12.746Z,45.10
2018-10-18T00:11:41.053Z,44.90
2018-10-18T00:14:09.326Z,43.40
2018-10-18T00:16:37.699Z,44.10
2018-10-18T00:19:05.915Z,48.50
2018-10-18T00:21:34.157Z,46.07
2018-10-18T00:24:02.347Z,47.67
2018-10-18T00:26:30.537Z,46.43
2018-10-18T00:28:58.777Z,47.73
2018-10-18T00:31:26.959Z,43.33
2018-10-18T00:33:55.142Z,47.10
2018-10-18T00:36:23.388Z,47.00
2018-10-18T00:38:51.642Z,49.33
2018-10-18T00:41:19.896Z,45.47
2018-10-18T00:43:48.167Z,43.30
2018-10-18T00:46:16.406Z,42.60
2018-10-18T00:48:44.649Z,44.77
2018-10-18T00:51:12.924Z,43.47
2018-10-18T00:53:41.147Z,41.90
2018-10-18T00:56:16.117Z,41.70
2018-10-18T00:58:44.233Z,42.60
2018-10-18T01:01:12.543Z,43.07
2018-10-18T01:03:40.779Z,39.93
2018-10-18T01:06:09.047Z,40.60
2018-10-18T01:08:37.241Z,40.43
2018-10-18T01:11:05.438Z,45.20
2018-10-18T01:13:33.631Z,44.60
2018-10-18T01:16:01.887Z,42.23
2018-10-18T01:18:30.142Z,42.87
2018-10-18T01:20:58.339Z,40.60
2018-10-18T01:23:26.712Z,43.03
2018-10-18T01:25:54.985Z,39.67
2018-10-18T01:28:23.190Z,39.90
2018-10-18T01:30:51.353Z,38.67
2018-10-18T01:33:19.598Z,40.50
2018-10-18T01:35:47.756Z,37.60
2018-10-18T01:38:16.053Z,38.70
2018-10-18T01:40:44.142Z,38.43
2018-10-18T01:43:12.316Z,38.30
2018-10-18T01:45:40.645Z,40.63
2018-10-18T01:48:09.377Z,39.00
2018-10-18T01:50:37.712Z,41.00
2018-10-18T01:53:06.636Z,41.50
2018-10-18T01:55:34.902Z,39.37
2018-10-18T01:58:03.180Z,40.73
2018-10-18T02:00:31.463Z,42.23
2018-10-18T02:02:59.754Z,40.80
2018-10-18T02:05:28.046Z,42.37
2018-10-18T02:07:56.300Z,43.10
2018-10-18T02:10:24.434Z,44.70
2018-10-18T02:12:52.658Z,43.33
2018-10-18T02:15:20.852Z,43.17
2018-10-18T02:17:49.057Z,45.40
2018-10-18T02:20:17.288Z,46.33
2018-10-18T02:22:45.532Z,48.00
2018-10-18T02:25:13.774Z,47.77
2018-10-18T02:27:42.012Z,45.87
2018-10-18T02:30:10.286Z,46.97
2018-10-18T02:32:38.466Z,46.63
2018-10-18T02:35:07.090Z,45.47
2018-10-18T02:37:35.318Z,43.20
2018-10-18T02:40:03.602Z,42.43
2018-10-18T02:42:38.585Z,42.17
2018-10-18T02:45:06.820Z,41.37
2018-10-18T02:47:35.226Z,43.80
2018-10-18T02:50:03.484Z,45.27
2018-10-18T02:52:31.760Z,42.93
2018-10-18T02:55:00.010Z,41.40
2018-10-18T02:57:28.384Z,43.47
2018-10-18T02:59:56.752Z,44.97
2018-10-18T03:02:25.078Z,44.33
2018-10-18T03:04:53.311Z,44.10
2018-10-18T03:07:21.499Z,43.27
2018-10-18T03:09:49.784Z,42.23
2018-10-18T03:12:18.057Z,43.23
2018-10-18T03:14:46.260Z,43.87
2018-10-18T03:17:14.536Z,44.70
2018-10-18T03:19:42.727Z,42.40
2018-10-18T03:22:10.956Z,42.00
2018-10-18T03:24:39.822Z,43.07
2018-10-18T03:27:07.987Z,42.70
2018-10-18T03:29:36.286Z,40.57
2018-10-18T03:32:07.946Z,40.80
2018-10-18T03:34:36.230Z,43.37
2018-10-18T03:37:04.925Z,42.27
2018-10-18T03:39:33.162Z,41.70
2018-10-18T03:42:01.490Z,43.00
2018-10-18T03:44:29.669Z,41.93
2018-10-18T03:46:57.885Z,43.23
2018-10-18T03:49:26.116Z,44.07
2018-10-18T03:51:54.318Z,43.97
2018-10-18T03:54:22.509Z,46.00
2018-10-18T03:56:50.785Z,43.00
2018-10-18T03:59:19.005Z,42.77
2018-10-18T04:01:47.259Z,43.70
2018-10-18T04:04:15.460Z,44.43
2018-10-18T04:06:43.725Z,44.80
2018-10-18T04:09:18.550Z,43.30
2018-10-18T04:11:46.746Z,43.97
2018-10-18T04:14:14.964Z,47.10
2018-10-18T04:16:43.154Z,48.20
2018-10-18T04:19:11.518Z,44.97
2018-10-18T04:21:39.689Z,46.90
2018-10-18T04:24:07.993Z,46.27
2018-10-18T04:26:36.338Z,45.43
2018-10-18T04:29:04.743Z,46.80
2018-10-18T04:31:32.977Z,45.67
2018-10-18T04:34:01.273Z,48.50
2018-10-18T04:36:29.554Z,45.80
2018-10-18T04:38:57.822Z,47.30
2018-10-18T04:41:26.014Z,48.97
2018-10-18T04:43:54.461Z,50.43
2018-10-18T04:46:22.721Z,51.27
2018-10-18T04:48:50.997Z,52.37
2018-10-18T04:51:19.276Z,50.60
2018-10-18T04:53:47.574Z,51.40
2018-10-18T04:56:16.017Z,53.73
2018-10-18T04:58:44.288Z,50.90
2018-10-18T05:01:15.684Z,50.83
2018-10-18T05:03:44.447Z,56.50
2018-10-18T05:06:19.050Z,55.87
2018-10-18T05:08:47.329Z,49.67
2018-10-18T05:11:15.706Z,50.20
2018-10-18T05:13:44.021Z,51.80
2018-10-18T05:16:12.323Z,49.63
2018-10-18T05:18:41.533Z,50.37
2018-10-18T05:21:09.801Z,51.13
2018-10-18T05:23:38.066Z,50.53
2018-10-18T05:26:08.020Z,52.00
2018-10-18T05:28:36.409Z,52.03
2018-10-18T05:31:08.536Z,50.97
2018-10-18T05:33:36.750Z,54.87
2018-10-18T05:36:05.109Z,53.67
2018-10-18T05:38:33.371Z,55.33
2018-10-18T05:41:01.689Z,53.80
2018-10-18T05:43:29.910Z,51.83
2018-10-18T05:45:58.167Z,52.50
2018-10-18T05:48:26.460Z,52.00
2018-10-18T05:50:54.711Z,53.23
2018-10-18T05:53:23.002Z,51.20
2018-10-18T05:55:53.307Z,52.77
2018-10-18T05:58:21.617Z,54.83
2018-10-18T06:00:49.819Z,54.67
2018-10-18T06:03:18.033Z,60.10
2018-10-18T06:05:47.757Z,63.37
2018-10-18T06:08:16.033Z,64.60
2018-10-18T06:10:55.486Z,60.50
2018-10-18T06:13:23.779Z,61.07
2018-10-18T06:15:52.013Z,66.80
2018-10-18T06:18:20.253Z,62.47
2018-10-18T06:20:48.513Z,62.20
2018-10-18T06:23:17.074Z,64.70
2018-10-18T06:25:45.191Z,64.63
2018-10-18T06:28:13.405Z,67.73
2018-10-18T06:30:41.639Z,68.87
2018-10-18T06:33:09.973Z,67.13
2018-10-18T06:35:38.225Z,65.57
2018-10-18T06:38:06.478Z,64.20
2018-10-18T06:40:34.911Z,69.07
2018-10-18T06:43:03.251Z,64.50
2018-10-18T06:45:31.465Z,66.47
2018-10-18T06:47:59.771Z,65.20
2018-10-18T06:50:28.057Z,67.90
2018-10-18T06:52:56.269Z,63.90
2018-10-18T06:55:24.569Z,63.37
2018-10-18T06:57:52.937Z,61.77
2018-10-18T07:00:23.265Z,62.03
2018-10-18T07:02:52.033Z,63.53
2018-10-18T07:05:20.246Z,61.33
2018-10-18T07:07:48.483Z,65.73
2018-10-18T07:10:16.794Z,67.80
2018-10-18T07:12:45.018Z,61.73
2018-10-18T07:15:14.504Z,65.57
2018-10-18T07:17:43.475Z,72.87
2018-10-18T07:20:12.492Z,65.77
2018-10-18T07:22:41.233Z,64.70
2018-10-18T07:25:13.750Z,67.13
2018-10-18T07:27:42.328Z,69.47
2018-10-18T07:30:12.009Z,76.73
2018-10-18T07:32:40.481Z,71.60
2018-10-18T07:35:09.794Z,78.70
2018-10-18T07:37:38.260Z,80.80
2018-10-18T07:40:08.646Z,81.40
2018-10-18T07:42:37.051Z,81.77
2018-10-18T07:45:05.698Z,85.90
2018-10-18T07:47:33.916Z,87.83
2018-10-18T07:50:02.264Z,91.80
2018-10-18T07:52:30.538Z,90.00
2018-10-18T07:54:58.912Z,93.70
2018-10-18T07:57:27.132Z,92.40
2018-10-18T07:59:55.489Z,88.60
2018-10-18T08:02:23.767Z,92.60
2018-10-18T08:04:52.023Z,92.93
2018-10-18T08:07:20.237Z,87.87
2018-10-18T08:09:48.569Z,87.67
2018-10-18T08:12:16.887Z,87.63
2018-10-18T08:14:45.150Z,84.20
2018-10-18T08:17:13.593Z,91.87
2018-10-18T08:19:41.825Z,80.83
2018-10-18T08:22:10.103Z,84.27
2018-10-18T08:24:38.440Z,83.30
2018-10-18T08:27:06.726Z,80.43
2018-10-18T08:29:35.006Z,81.80
2018-10-18T08:32:03.276Z,82.97
2018-10-18T08:34:31.563Z,79.90
2018-10-18T08:36:59.862Z,79.27
2018-10-18T08:39:28.106Z,78.17
2018-10-18T08:41:57.496Z,75.47
2018-10-18T08:44:25.906Z,78.53
2018-10-18T08:46:54.157Z,72.27
2018-10-18T08:49:22.455Z,68.43
2018-10-18T08:51:50.773Z,69.97
2018-10-18T08:54:19.026Z,71.07
2018-10-18T08:56:47.254Z,67.30
2018-10-18T08:59:15.697Z,68.90
2018-10-18T09:01:44.003Z,64.70
2018-10-18T09:04:12.260Z,64.90
2018-10-18T09:06:40.513Z,62.27
2018-10-18T09:09:09.502Z,60.53
2018-10-18T09:11:37.964Z,60.13
2018-10-18T09:14:13.258Z,61.13
2018-10-18T09:16:41.557Z,59.70
2018-10-18T09:19:09.886Z,58.80
2018-10-18T09:21:38.103Z,57.80
2018-10-18T09:24:06.409Z,59.70
2018-10-18T09:26:34.673Z,59.63
2018-10-18T09:29:02.933Z,57.30
2018-10-18T09:31:31.151Z,57.50
2018-10-18T09:33:59.485Z,57.10
2018-10-18T09:36:27.751Z,56.03
2018-10-18T09:38:55.988Z,54.07
2018-10-18T09:41:24.281Z,54.80
2018-10-18T09:44:02.188Z,53.00
2018-10-18T09:46:31.072Z,55.60
2018-10-18T09:48:59.567Z,53.37
2018-10-18T09:51:27.798Z,53.80
2018-10-18T09:53:56.063Z,51.00
2018-10-18T09:56:24.348Z,52.50
2018-10-18T09:58:52.801Z,50.37
2018-10-18T10:01:26.416Z,49.40
2018-10-18T10:03:54.664Z,50.53
2018-10-18T10:06:22.992Z,50.03
2018-10-18T10:08:51.225Z,50.20
2018-10-18T10:11:19.734Z,50.60
2018-10-18T10:13:48.071Z,51.80
2018-10-18T10:16:17.006Z,49.40
2018-10-18T10:18:45.234Z,51.10
2018-10-18T10:21:13.584Z,51.30
2018-10-18T10:23:41.796Z,51.90
2018-10-18T10:26:10.051Z,51.57
2018-10-18T10:28:38.323Z,51.57
2018-10-18T10:31:07.768Z,54.03
2018-10-18T10:33:35.931Z,53.63
2018-10-18T10:36:04.417Z,51.97
2018-10-18T10:38:32.753Z,52.80
2018-10-18T10:41:01.012Z,52.47
2018-10-18T10:43:29.245Z,49.33
2018-10-18T10:45:57.443Z,51.10
2018-10-18T10:48:25.651Z,48.30
2018-10-18T10:50:53.905Z,48.37
2018-10-18T10:53:22.402Z,48.40
2018-10-18T10:55:51.169Z,48.30
2018-10-18T10:58:19.500Z,49.27
2018-10-18T11:01:08.426Z,47.17
2018-10-18T11:03:37.173Z,47.20
2018-10-18T11:06:05.495Z,45.90
2018-10-18T11:08:34.232Z,45.47
2018-10-18T11:11:02.526Z,43.63
2018-10-18T11:13:30.974Z,44.37
2018-10-18T11:16:00.793Z,43.07
2018-10-18T11:18:29.095Z,43.60
2018-10-18T11:20:57.425Z,42.70
2018-10-18T11:23:25.836Z,43.13
2018-10-18T11:25:54.099Z,44.53
2018-10-18T11:28:22.307Z,45.33
2018-10-18T11:30:50.572Z,44.77
2018-10-18T11:33:18.903Z,44.40
2018-10-18T11:35:47.104Z,46.07
2018-10-18T11:38:15.683Z,47.00
2018-10-18T11:40:44.001Z,45.70
2018-10-18T11:43:12.684Z,46.07
2018-10-18T11:45:41.243Z,45.90
2018-10-18T11:48:11.149Z,47.60
2018-10-18T11:50:39.738Z,46.43
2018-10-18T11:53:07.972Z,46.50
2018-10-18T11:55:36.543Z,46.33
2018-10-18T11:58:05.282Z,44.23
2018-10-18T12:00:33.502Z,43.10
2018-10-18T12:03:01.880Z,42.47
2018-10-18T12:05:30.201Z,43.63
2018-10-18T12:07:58.666Z,42.60
2018-10-18T12:10:26.878Z,41.77
2018-10-18T12:12:55.200Z,42.30
2018-10-18T12:15:23.401Z,39.03
2018-10-18T12:17:51.659Z,39.37
2018-10-18T12:20:19.940Z,42.83
2018-10-18T12:22:48.193Z,41.90
2018-10-18T12:25:16.407Z,43.73
2018-10-18T12:27:45.017Z,43.23
2018-10-18T12:30:13.810Z,43.20
2018-10-18T12:32:42.045Z,42.77
2018-10-18T12:35:10.348Z,44.63
2018-10-18T12:37:38.570Z,44.23
2018-10-18T12:40:08.094Z,44.33
2018-10-18T12:42:37.760Z,46.33
2018-10-18T12:45:07.968Z,46.23
2018-10-18T12:47:36.273Z,47.30
2018-10-18T12:50:05.043Z,46.10
2018-10-18T12:52:33.201Z,47.83
2018-10-18T12:55:01.765Z,48.40
2018-10-18T12:57:30.065Z,46.23
2018-10-18T12:59:58.417Z,47.00
2018-10-18T13:02:27.003Z,49.57
2018-10-18T13:04:55.329Z,47.73
2018-10-18T13:07:23.668Z,51.37
2018-10-18T13:09:51.997Z,50.20
2018-10-18T13:12:20.384Z,49.20
2018-10-18T13:14:48.537Z,48.00
2018-10-18T13:17:16.864Z,45.73
2018-10-18T13:19:45.197Z,49.77
2018-10-18T13:22:13.520Z,48.43
2018-10-18T13:24:41.802Z,48.70
2018-10-18T13:27:10.147Z,47.00
2018-10-18T13:29:38.473Z,51.23
2018-10-18T13:32:06.773Z,48.17
2018-10-18T13:34:35.109Z,49.17
2018-10-18T13:37:03.477Z,49.07
2018-10-18T13:39:31.708Z,46.83
2018-10-18T13:42:00.047Z,53.27
2018-10-18T13:44:28.319Z,49.27
2018-10-18T13:46:56.740Z,49.37
2018-10-18T13:49:25.017Z,48.57
2018-10-18T13:51:53.232Z,49.60
2018-10-18T13:54:21.534Z,48.53
2018-10-18T13:56:49.837Z,50.73
2018-10-18T13:59:29.661Z,50.70
2018-10-18T14:01:58.062Z,48.73
2018-10-18T14:04:26.286Z,49.47
2018-10-18T14:06:54.538Z,47.60
2018-10-18T14:09:22.849Z,46.77
2018-10-18T14:11:51.117Z,45.73
2018-10-18T14:14:19.364Z,46.50
2018-10-18T14:16:47.616Z,46.80
2018-10-18T14:19:15.813Z,44.90
2018-10-18T14:21:44.007Z,47.53
2018-10-18T14:24:12.241Z,46.20
2018-10-18T14:26:40.518Z,46.47
2018-10-18T14:29:08.806Z,43.23
2018-10-18T14:31:37.003Z,44.80
2018-10-18T14:34:06.100Z,44.20
2018-10-18T14:36:34.359Z,44.37
2018-10-18T14:39:03.038Z,44.20
2018-10-18T14:41:31.467Z,44.87
2018-10-18T14:44:06.374Z,42.73
2018-10-18T14:46:34.693Z,44.03
2018-10-18T14:49:03.016Z,42.77
2018-10-18T14:51:31.301Z,42.97
2018-10-18T14:53:59.620Z,44.53
2018-10-18T14:56:27.898Z,43.27
2018-10-18T14:58:56.311Z,42.00
2018-10-18T15:01:24.574Z,41.53
2018-10-18T15:03:59.376Z,42.47
2018-10-18T15:06:27.866Z,42.90
2018-10-18T15:08:56.164Z,41.70
2018-10-18T15:11:24.460Z,42.03
2018-10-18T15:13:53.205Z,42.27
2018-10-18T15:16:21.814Z,42.77
2018-10-18T15:18:50.208Z,42.37
2018-10-18T15:21:18.508Z,41.53
2018-10-18T15:23:47.182Z,43.20
2018-10-18T15:26:15.776Z,41.50
2018-10-18T15:28:44.323Z,41.30
2018-10-18T15:31:12.993Z,43.13
2018-10-18T15:33:41.245Z,40.23
2018-10-18T15:36:10.541Z,40.47
2018-10-18T15:38:39.562Z,41.00
2018-10-18T15:41:07.901Z,38.80
2018-10-18T15:43:36.640Z,39.67
2018-10-18T15:46:05.551Z,39.20
2018-10-18T15:48:41.806Z,38.20
2018-10-18T15:51:10.739Z,40.90
2018-10-18T15:53:39.006Z,40.73
2018-10-18T15:56:07.342Z,39.93
2018-10-18T15:58:35.855Z,39.07
2018-10-18T16:01:04.312Z,38.10
2018-10-18T16:03:33.119Z,38.47
2018-10-18T16:06:01.375Z,37.93
2018-10-18T16:08:29.675Z,38.13
2018-10-18T16:10:58.114Z,39.57
2018-10-18T16:13:26.467Z,37.43
2018-10-18T16:15:54.654Z,40.57
2018-10-18T16:18:22.963Z,38.37
2018-10-18T16:20:51.291Z,39.17
2018-10-18T16:23:19.867Z,45.03
2018-10-18T16:25:48.229Z,38.30
2018-10-18T16:28:16.492Z,38.90
2018-10-18T16:30:44.736Z,38.07
2018-10-18T16:33:12.962Z,38.90
2018-10-18T16:35:47.762Z,37.43
2018-10-18T16:38:16.203Z,37.93
2018-10-18T16:40:44.661Z,39.50
2018-10-18T16:43:13.570Z,38.47
2018-10-18T16:45:41.890Z,39.67
2018-10-18T16:48:10.746Z,40.57
2018-10-18T16:50:39.239Z,42.03
2018-10-18T16:53:07.949Z,42.20
2018-10-18T16:55:36.190Z,44.03
2018-10-18T16:58:04.648Z,43.17
2018-10-18T17:00:33.091Z,43.60
2018-10-18T17:03:01.417Z,44.67
2018-10-18T17:05:29.984Z,43.60
2018-10-18T17:07:58.402Z,41.50
2018-10-18T17:10:26.941Z,43.30
2018-10-18T17:12:55.315Z,44.00
2018-10-18T17:15:23.577Z,43.60
2018-10-18T17:17:51.940Z,41.40
2018-10-18T17:20:20.249Z,34.60
2018-10-18T17:22:48.473Z,33.27
2018-10-18T17:25:16.763Z,30.97
2018-10-18T17:27:45.149Z,27.47
2018-10-18T17:30:13.388Z,25.30
2018-10-18T17:32:41.639Z,22.80
2018-10-18T17:35:09.939Z,21.13
2018-10-18T17:37:38.360Z,22.10
2018-10-18T17:40:07.274Z,20.13
2018-10-18T17:42:35.733Z,22.13
2018-10-18T17:45:04.029Z,21.10
2018-10-18T17:47:32.389Z,21.07
2018-10-18T17:50:00.710Z,23.03
2018-10-18T17:52:28.982Z,23.97
2018-10-18T17:54:57.223Z,24.80
2018-10-18T17:57:25.483Z,24.50
2018-10-18T17:59:53.843Z,27.93
2018-10-18T18:02:22.353Z,26.00
2018-10-18T18:04:50.782Z,28.10
2018-10-18T18:07:19.402Z,27.93
2018-10-18T18:09:47.706Z,27.33
2018-10-18T18:12:16.120Z,28.67
2018-10-18T18:14:44.456Z,27.60
2018-10-18T18:17:12.697Z,29.27
2018-10-18T18:19:41.104Z,27.10
2018-10-18T18:22:09.655Z,26.43
2018-10-18T18:24:38.026Z,23.70
2018-10-18T18:27:06.403Z,25.27
2018-10-18T18:29:34.715Z,27.80
2018-10-18T18:32:03.064Z,24.30
2018-10-18T18:34:31.319Z,24.70
2018-10-18T18:36:59.693Z,23.20
2018-10-18T18:39:28.199Z,23.87
2018-10-18T18:41:56.521Z,27.00
2018-10-18T18:44:24.869Z,25.40
2018-10-18T18:46:53.234Z,25.57
2018-10-18T18:49:21.644Z,24.63
2018-10-18T18:51:49.933Z,23.60
2018-10-18T18:54:18.359Z,24.23
2018-10-18T18:56:46.742Z,21.67
2018-10-18T18:59:15.111Z,23.17
2018-10-18T19:01:43.579Z,21.57
2018-10-18T19:04:11.914Z,22.10
2018-10-18T19:06:41.160Z,21.50
2018-10-18T19:09:10.095Z,21.53
2018-10-18T19:11:38.752Z,21.07
2018-10-18T19:14:07.763Z,18.93
2018-10-18T19:16:36.143Z,17.37
2018-10-18T19:19:04.700Z,17.97
2018-10-18T19:21:33.066Z,16.10
2018-10-18T19:24:01.396Z,16.03
2018-10-18T19:26:29.680Z,14.27
2018-10-18T19:28:57.960Z,14.93
2018-10-18T19:31:26.390Z,14.30
2018-10-18T19:33:54.936Z,13.60
2018-10-18T19:36:23.230Z,13.27
2018-10-18T19:38:51.524Z,12.23
2018-10-18T19:41:19.972Z,11.47
2018-10-18T19:43:48.327Z,12.53
2018-10-18T19:46:16.884Z,11.00
2018-10-18T19:48:45.098Z,12.30
2018-10-18T19:51:13.640Z,12.17
2018-10-18T19:53:41.962Z,10.30
2018-10-18T19:56:10.422Z,10.50
2018-10-18T19:58:38.744Z,9.80
2018-10-18T20:01:07.176Z,9.40
2018-10-18T20:03:35.490Z,8.97
2018-10-18T20:06:03.803Z,10.20
2018-10-18T20:08:32.166Z,8.50
2018-10-18T20:11:00.552Z,8.00
2018-10-18T20:13:28.880Z,9.37
2018-10-18T20:15:57.173Z,10.83
2018-10-18T20:18:25.532Z,9.23
2018-10-18T20:20:53.817Z,9.13
2018-10-18T20:23:22.221Z,9.30
2018-10-18T20:25:50.815Z,9.37
2018-10-18T20:28:18.944Z,9.40
2018-10-18T20:30:47.294Z,9.60
2018-10-18T20:33:15.621Z,9.00
2018-10-18T20:35:43.963Z,10.80
2018-10-18T20:38:12.148Z,8.40
2018-10-18T20:40:40.370Z,8.93
2018-10-18T20:43:08.649Z,8.00
2018-10-18T20:45:37.388Z,8.30
2018-10-18T20:48:05.963Z,8.20
2018-10-18T20:50:34.042Z,8.37
2018-10-18T20:53:02.493Z,8.70
2018-10-18T20:55:30.721Z,7.67
2018-10-18T20:57:59.059Z,7.50
2018-10-18T21:00:27.298Z,6.90
2018-10-18T21:02:55.905Z,6.97
2018-10-18T21:05:24.061Z,7.10
2018-10-18T21:07:52.328Z,7.60
2018-10-18T21:10:20.631Z,6.70
2018-10-18T21:12:48.890Z,6.07
2018-10-18T21:15:17.268Z,6.40
2018-10-18T21:17:45.721Z,6.33
2018-10-18T21:20:13.935Z,6.77
2018-10-18T21:22:42.139Z,4.90
2018-10-18T21:25:10.409Z,5.90
2018-10-18T21:27:38.680Z,5.00
2018-10-18T21:30:07.341Z,5.37
2018-10-18T21:32:35.571Z,5.13
2018-10-18T21:35:03.940Z,4.53
2018-10-18T21:37:32.681Z,5.10
2018-10-18T21:40:00.990Z,5.03
2018-10-18T21:42:29.241Z,4.20
2018-10-18T21:44:57.494Z,3.40
2018-10-18T21:47:26.018Z,3.83
2018-10-18T21:49:54.237Z,3.33
2018-10-18T21:52:22.556Z,3.43
2018-10-18T21:54:50.800Z,3.03
2018-10-18T21:57:19.028Z,3.40
2018-10-18T21:59:47.299Z,2.83
2018-10-18T22:02:15.615Z,2.80
2018-10-18T22:04:43.891Z,3.10
2018-10-18T22:07:12.109Z,3.00
2018-10-18T22:09:40.416Z,2.40
2018-10-18T22:12:08.622Z,2.63
2018-10-18T22:14:36.885Z,2.17
2018-10-18T22:17:05.934Z,2.50
2018-10-18T22:19:34.231Z,2.37
2018-10-18T22:22:02.609Z,2.47
2018-10-18T22:24:30.818Z,2.63
2018-10-18T22:26:59.188Z,2.33
2018-10-18T22:29:27.390Z,3.03
2018-10-18T22:31:55.575Z,3.47
2018-10-18T22:34:23.747Z,2.20
2018-10-18T22:36:51.951Z,1.60
2018-10-18T22:39:20.212Z,1.90
2018-10-18T22:41:48.432Z,1.93
2018-10-18T22:44:16.644Z,2.30
2018-10-18T22:46:44.920Z,1.83
2018-10-18T22:49:13.119Z,2.03
2018-10-18T22:51:41.402Z,1.93
2018-10-18T22:54:09.608Z,2.00
2018-10-18T22:56:37.921Z,2.40
2018-10-18T22:59:06.218Z,2.70
2018-10-18T23:01:34.562Z,2.17
2018-10-18T23:04:02.733Z,1.90
2018-10-18T23:06:37.660Z,3.33
2018-10-18T23:09:08.439Z,1.97
2018-10-18T23:11:36.675Z,2.40
2018-10-18T23:14:05.432Z,1.70
2018-10-18T23:16:40.388Z,2.80
2018-10-18T23:19:09.621Z,2.60
2018-10-18T23:21:37.906Z,2.40
2018-10-18T23:24:06.529Z,2.40
2018-10-18T23:26:34.764Z,2.60
2018-10-18T23:29:03.086Z,2.00
2018-10-18T23:31:31.270Z,1.97
2018-10-18T23:33:59.566Z,2.10
2018-10-18T23:36:27.812Z,2.40
2018-10-18T23:38:56.115Z,1.70
2018-10-18T23:41:24.275Z,2.70
2018-10-18T23:43:52.549Z,2.27
2018-10-18T23:46:20.915Z,2.50
2018-10-18T23:48:49.248Z,2.13
2018-10-18T23:51:17.514Z,1.80
2018-10-18T23:53:45.730Z,2.40
2018-10-18T23:56:13.961Z,2.60
2018-10-18T23:58:42.534Z,2.23
